sensor_id;sensor_type;location;lat;lon;timestamp;pressure;altitude;pressure_sealevel;temperature
9119;BMP180;4594;50.994;7.126;2023-02-15T00:01:43;101960.00;;;8.90
9119;BMP180;4594;50.994;7.126;2023-02-15T00:04:12;101982.00;;;8.80
9119;BMP180;4594;50.994;7.126;2023-02-15T00:06:38;101958.00;;;8.80
9119;BMP180;4594;50.994;7.126;2023-02-15T00:09:04;101957.00;;;8.80
9119;BMP180;4594;50.994;7.126;2023-02-15T00:11:30;101968.00;;;8.80
9119;BMP180;4594;50.994;7.126;2023-02-15T00:14:15;101956.00;;;8.80
9119;BMP180;4594;50.994;7.126;2023-02-15T00:16:43;101961.00;;;8.80
9119;BMP180;4594;50.994;7.126;2023-02-15T00:19:11;101961.00;;;8.80
9119;BMP180;4594;50.994;7.126;2023-02-15T00:21:39;101937.00;;;8.70
9119;BMP180;4594;50.994;7.126;2023-02-15T00:24:08;101956.00;;;8.70
9119;BMP180;4594;50.994;7.126;2023-02-15T00:26:35;101963.00;;;8.70
9119;BMP180;4594;50.994;7.126;2023-02-15T00:29:02;101959.00;;;8.70
9119;BMP180;4594;50.994;7.126;2023-02-15T00:31:30;101951.00;;;8.70
9119;BMP180;4594;50.994;7.126;2023-02-15T00:34:19;101965.00;;;8.70
9119;BMP180;4594;50.994;7.126;2023-02-15T00:36:45;101962.00;;;8.60
9119;BMP180;4594;50.994;7.126;2023-02-15T00:39:12;101958.00;;;8.60
9119;BMP180;4594;50.994;7.126;2023-02-15T00:41:38;101952.00;;;8.60
9119;BMP180;4594;50.994;7.126;2023-02-15T00:44:05;101953.00;;;8.60
9119;BMP180;4594;50.994;7.126;2023-02-15T00:46:31;101954.00;;;8.60
9119;BMP180;4594;50.994;7.126;2023-02-15T00:48:57;101950.00;;;8.60
9119;BMP180;4594;50.994;7.126;2023-02-15T00:51:23;101940.00;;;8.60
9119;BMP180;4594;50.994;7.126;2023-02-15T00:53:50;101961.00;;;8.60
9119;BMP180;4594;50.994;7.126;2023-02-15T00:56:15;101950.00;;;8.50
9119;BMP180;4594;50.994;7.126;2023-02-15T00:58:42;101960.00;;;8.50
9119;BMP180;4594;50.994;7.126;2023-02-15T01:01:12;101942.00;;;8.50
9119;BMP180;4594;50.994;7.126;2023-02-15T01:03:40;101958.00;;;8.50
9119;BMP180;4594;50.994;7.126;2023-02-15T01:06:10;101952.00;;;8.50
9119;BMP180;4594;50.994;7.126;2023-02-15T01:08:37;101958.00;;;8.50
9119;BMP180;4594;50.994;7.126;2023-02-15T01:11:10;101958.00;;;8.50
9119;BMP180;4594;50.994;7.126;2023-02-15T01:13:37;101945.00;;;8.40
9119;BMP180;4594;50.994;7.126;2023-02-15T01:16:03;101947.00;;;8.40
9119;BMP180;4594;50.994;7.126;2023-02-15T01:18:29;101935.00;;;8.40
9119;BMP180;4594;50.994;7.126;2023-02-15T01:20:55;101952.00;;;8.40
9119;BMP180;4594;50.994;7.126;2023-02-15T01:23:21;101952.00;;;8.30
9119;BMP180;4594;50.994;7.126;2023-02-15T01:25:47;101923.00;;;8.30
9119;BMP180;4594;50.994;7.126;2023-02-15T01:28:13;101921.00;;;8.30
9119;BMP180;4594;50.994;7.126;2023-02-15T01:30:39;101929.00;;;8.30
9119;BMP180;4594;50.994;7.126;2023-02-15T01:33:05;101933.00;;;8.30
9119;BMP180;4594;50.994;7.126;2023-02-15T01:35:31;101925.00;;;8.30
9119;BMP180;4594;50.994;7.126;2023-02-15T01:37:57;101930.00;;;8.30
9119;BMP180;4594;50.994;7.126;2023-02-15T01:40:24;101906.00;;;8.20
9119;BMP180;4594;50.994;7.126;2023-02-15T01:42:52;101930.00;;;8.20
9119;BMP180;4594;50.994;7.126;2023-02-15T01:45:28;101914.00;;;8.20
9119;BMP180;4594;50.994;7.126;2023-02-15T01:48:24;101915.00;;;8.20
9119;BMP180;4594;50.994;7.126;2023-02-15T01:50:58;101897.00;;;8.10
9119;BMP180;4594;50.994;7.126;2023-02-15T01:53:51;101913.00;;;8.10
9119;BMP180;4594;50.994;7.126;2023-02-15T01:56:25;101913.00;;;8.10
9119;BMP180;4594;50.994;7.126;2023-02-15T01:58:55;101922.00;;;8.10
9119;BMP180;4594;50.994;7.126;2023-02-15T02:01:25;101912.00;;;8.10
9119;BMP180;4594;50.994;7.126;2023-02-15T02:06:32;101911.00;;;8.00
9119;BMP180;4594;50.994;7.126;2023-02-15T02:08:58;101889.00;;;8.00
9119;BMP180;4594;50.994;7.126;2023-02-15T02:11:24;101898.00;;;8.00
9119;BMP180;4594;50.994;7.126;2023-02-15T02:13:52;101904.00;;;8.00
9119;BMP180;4594;50.994;7.126;2023-02-15T02:16:27;101886.00;;;8.00
9119;BMP180;4594;50.994;7.126;2023-02-15T02:19:40;101888.00;;;8.00
9119;BMP180;4594;50.994;7.126;2023-02-15T02:29:07;101886.00;;;7.80
9119;BMP180;4594;50.994;7.126;2023-02-15T02:40:07;101870.00;;;7.80
9119;BMP180;4594;50.994;7.126;2023-02-15T02:42:43;101880.00;;;7.80
9119;BMP180;4594;50.994;7.126;2023-02-15T02:45:25;101871.00;;;7.80
9119;BMP180;4594;50.994;7.126;2023-02-15T02:48:12;101863.00;;;7.80
9119;BMP180;4594;50.994;7.126;2023-02-15T02:50:40;101862.00;;;7.80
9119;BMP180;4594;50.994;7.126;2023-02-15T02:53:09;101853.00;;;7.70
9119;BMP180;4594;50.994;7.126;2023-02-15T02:55:45;101846.00;;;7.70
9119;BMP180;4594;50.994;7.126;2023-02-15T03:01:08;101837.00;;;7.70
9119;BMP180;4594;50.994;7.126;2023-02-15T03:03:45;101851.00;;;7.70
9119;BMP180;4594;50.994;7.126;2023-02-15T03:06:52;101841.00;;;7.70
9119;BMP180;4594;50.994;7.126;2023-02-15T03:09:45;101840.00;;;7.60
9119;BMP180;4594;50.994;7.126;2023-02-15T03:12:22;101833.00;;;7.60
9119;BMP180;4594;50.994;7.126;2023-02-15T03:14:55;101837.00;;;7.60
9119;BMP180;4594;50.994;7.126;2023-02-15T03:17:25;101832.00;;;7.60
9119;BMP180;4594;50.994;7.126;2023-02-15T03:19:57;101833.00;;;7.60
9119;BMP180;4594;50.994;7.126;2023-02-15T03:22:40;101786.00;;;7.60
9119;BMP180;4594;50.994;7.126;2023-02-15T03:25:17;101827.00;;;7.60
9119;BMP180;4594;50.994;7.126;2023-02-15T03:27:52;101819.00;;;7.60
9119;BMP180;4594;50.994;7.126;2023-02-15T03:30:21;101826.00;;;7.60
9119;BMP180;4594;50.994;7.126;2023-02-15T03:32:49;101806.00;;;7.60
9119;BMP180;4594;50.994;7.126;2023-02-15T03:35:16;101825.00;;;7.60
9119;BMP180;4594;50.994;7.126;2023-02-15T03:37:58;101832.00;;;7.60
9119;BMP180;4594;50.994;7.126;2023-02-15T03:40:45;101831.00;;;7.60
9119;BMP180;4594;50.994;7.126;2023-02-15T03:43:55;101821.00;;;7.50
9119;BMP180;4594;50.994;7.126;2023-02-15T03:46:50;101805.00;;;7.50
9119;BMP180;4594;50.994;7.126;2023-02-15T03:49:53;101802.00;;;7.50
9119;BMP180;4594;50.994;7.126;2023-02-15T03:52:17;101805.00;;;7.50
9119;BMP180;4594;50.994;7.126;2023-02-15T03:54:44;101829.00;;;7.50
9119;BMP180;4594;50.994;7.126;2023-02-15T03:57:24;101821.00;;;7.50
9119;BMP180;4594;50.994;7.126;2023-02-15T04:00:24;101809.00;;;7.40
9119;BMP180;4594;50.994;7.126;2023-02-15T04:03:44;101797.00;;;7.40
9119;BMP180;4594;50.994;7.126;2023-02-15T04:06:10;101804.00;;;7.40
9119;BMP180;4594;50.994;7.126;2023-02-15T04:08:36;101803.00;;;7.50
9119;BMP180;4594;50.994;7.126;2023-02-15T04:11:20;101806.00;;;7.40
9119;BMP180;4594;50.994;7.126;2023-02-15T04:13:46;101805.00;;;7.50
9119;BMP180;4594;50.994;7.126;2023-02-15T04:16:11;101813.00;;;7.40
9119;BMP180;4594;50.994;7.126;2023-02-15T04:18:43;101823.00;;;7.50
9119;BMP180;4594;50.994;7.126;2023-02-15T04:21:29;101826.00;;;7.40
9119;BMP180;4594;50.994;7.126;2023-02-15T04:24:15;101809.00;;;7.40
9119;BMP180;4594;50.994;7.126;2023-02-15T04:26:59;101817.00;;;7.40
9119;BMP180;4594;50.994;7.126;2023-02-15T04:29:27;101797.00;;;7.40
9119;BMP180;4594;50.994;7.126;2023-02-15T04:31:55;101820.00;;;7.40
9119;BMP180;4594;50.994;7.126;2023-02-15T04:34:22;101823.00;;;7.40
9119;BMP180;4594;50.994;7.126;2023-02-15T04:36:48;101807.00;;;7.40
9119;BMP180;4594;50.994;7.126;2023-02-15T04:39:17;101825.00;;;7.40
9119;BMP180;4594;50.994;7.126;2023-02-15T04:41:44;101829.00;;;7.40
9119;BMP180;4594;50.994;7.126;2023-02-15T04:44:10;101792.00;;;7.40
9119;BMP180;4594;50.994;7.126;2023-02-15T04:46:36;101789.00;;;7.40
9119;BMP180;4594;50.994;7.126;2023-02-15T04:49:02;101806.00;;;7.30
9119;BMP180;4594;50.994;7.126;2023-02-15T04:51:28;101805.00;;;7.30
9119;BMP180;4594;50.994;7.126;2023-02-15T04:53:54;101782.00;;;7.30
9119;BMP180;4594;50.994;7.126;2023-02-15T04:56:21;101811.00;;;7.30
9119;BMP180;4594;50.994;7.126;2023-02-15T04:58:47;101805.00;;;7.30
9119;BMP180;4594;50.994;7.126;2023-02-15T05:01:13;101794.00;;;7.30
9119;BMP180;4594;50.994;7.126;2023-02-15T05:03:38;101806.00;;;7.30
9119;BMP180;4594;50.994;7.126;2023-02-15T05:06:05;101808.00;;;7.20
9119;BMP180;4594;50.994;7.126;2023-02-15T05:08:31;101794.00;;;7.20
9119;BMP180;4594;50.994;7.126;2023-02-15T05:10:57;101785.00;;;7.20
9119;BMP180;4594;50.994;7.126;2023-02-15T05:13:23;101808.00;;;7.20
9119;BMP180;4594;50.994;7.126;2023-02-15T05:15:51;101797.00;;;7.20
9119;BMP180;4594;50.994;7.126;2023-02-15T05:18:19;101804.00;;;7.20
9119;BMP180;4594;50.994;7.126;2023-02-15T05:20:45;101784.00;;;7.20
9119;BMP180;4594;50.994;7.126;2023-02-15T05:23:11;101781.00;;;7.10
9119;BMP180;4594;50.994;7.126;2023-02-15T05:25:37;101780.00;;;7.10
9119;BMP180;4594;50.994;7.126;2023-02-15T05:28:24;101772.00;;;7.10
9119;BMP180;4594;50.994;7.126;2023-02-15T05:31:00;101800.00;;;7.10
9119;BMP180;4594;50.994;7.126;2023-02-15T05:33:27;101772.00;;;7.00
9119;BMP180;4594;50.994;7.126;2023-02-15T05:35:53;101793.00;;;7.00
9119;BMP180;4594;50.994;7.126;2023-02-15T05:38:18;101799.00;;;7.00
9119;BMP180;4594;50.994;7.126;2023-02-15T05:40:44;101795.00;;;7.00
9119;BMP180;4594;50.994;7.126;2023-02-15T05:43:10;101799.00;;;7.00
9119;BMP180;4594;50.994;7.126;2023-02-15T05:45:35;101803.00;;;7.00
9119;BMP180;4594;50.994;7.126;2023-02-15T05:48:01;101789.00;;;7.00
9119;BMP180;4594;50.994;7.126;2023-02-15T05:50:27;101779.00;;;7.00
9119;BMP180;4594;50.994;7.126;2023-02-15T05:52:52;101795.00;;;7.00
9119;BMP180;4594;50.994;7.126;2023-02-15T05:55:18;101796.00;;;7.00
9119;BMP180;4594;50.994;7.126;2023-02-15T05:57:44;101794.00;;;6.90
9119;BMP180;4594;50.994;7.126;2023-02-15T06:00:12;101792.00;;;6.90
9119;BMP180;4594;50.994;7.126;2023-02-15T06:02:38;101791.00;;;6.90
9119;BMP180;4594;50.994;7.126;2023-02-15T06:05:05;101790.00;;;6.90
9119;BMP180;4594;50.994;7.126;2023-02-15T06:07:31;101791.00;;;6.90
9119;BMP180;4594;50.994;7.126;2023-02-15T06:09:58;101793.00;;;7.00
9119;BMP180;4594;50.994;7.126;2023-02-15T06:12:23;101789.00;;;7.00
9119;BMP180;4594;50.994;7.126;2023-02-15T06:14:49;101782.00;;;7.00
9119;BMP180;4594;50.994;7.126;2023-02-15T06:17:15;101798.00;;;7.00
9119;BMP180;4594;50.994;7.126;2023-02-15T06:19:43;101791.00;;;7.10
9119;BMP180;4594;50.994;7.126;2023-02-15T06:22:09;101769.00;;;7.10
9119;BMP180;4594;50.994;7.126;2023-02-15T06:24:34;101773.00;;;7.10
9119;BMP180;4594;50.994;7.126;2023-02-15T06:27:00;101771.00;;;7.10
9119;BMP180;4594;50.994;7.126;2023-02-15T06:29:26;101781.00;;;7.10
9119;BMP180;4594;50.994;7.126;2023-02-15T06:31:51;101764.00;;;7.10
9119;BMP180;4594;50.994;7.126;2023-02-15T06:34:17;101788.00;;;7.10
9119;BMP180;4594;50.994;7.126;2023-02-15T06:36:43;101772.00;;;7.10
9119;BMP180;4594;50.994;7.126;2023-02-15T06:39:08;101752.00;;;7.10
9119;BMP180;4594;50.994;7.126;2023-02-15T06:41:34;101797.00;;;7.10
9119;BMP180;4594;50.994;7.126;2023-02-15T06:44:00;101795.00;;;7.10
9119;BMP180;4594;50.994;7.126;2023-02-15T06:46:26;101787.00;;;7.10
9119;BMP180;4594;50.994;7.126;2023-02-15T06:48:51;101801.00;;;7.10
9119;BMP180;4594;50.994;7.126;2023-02-15T06:51:17;101783.00;;;7.10
9119;BMP180;4594;50.994;7.126;2023-02-15T06:53:43;101800.00;;;7.10
9119;BMP180;4594;50.994;7.126;2023-02-15T06:56:10;101784.00;;;7.10
9119;BMP180;4594;50.994;7.126;2023-02-15T06:58:38;101795.00;;;7.10
9119;BMP180;4594;50.994;7.126;2023-02-15T07:01:05;101783.00;;;7.20
9119;BMP180;4594;50.994;7.126;2023-02-15T07:03:32;101780.00;;;7.20
9119;BMP180;4594;50.994;7.126;2023-02-15T07:06:00;101802.00;;;7.20
9119;BMP180;4594;50.994;7.126;2023-02-15T07:08:27;101782.00;;;7.20
9119;BMP180;4594;50.994;7.126;2023-02-15T07:10:55;101800.00;;;7.20
9119;BMP180;4594;50.994;7.126;2023-02-15T07:13:41;101797.00;;;7.40
9119;BMP180;4594;50.994;7.126;2023-02-15T07:16:09;101800.00;;;7.50
9119;BMP180;4594;50.994;7.126;2023-02-15T07:18:35;101795.00;;;7.70
9119;BMP180;4594;50.994;7.126;2023-02-15T07:21:01;101787.00;;;7.90
9119;BMP180;4594;50.994;7.126;2023-02-15T07:23:27;101798.00;;;8.00
9119;BMP180;4594;50.994;7.126;2023-02-15T07:26:00;101799.00;;;8.30
9119;BMP180;4594;50.994;7.126;2023-02-15T07:28:27;101793.00;;;8.50
9119;BMP180;4594;50.994;7.126;2023-02-15T07:30:53;101796.00;;;8.80
9119;BMP180;4594;50.994;7.126;2023-02-15T07:33:19;101798.00;;;9.20
9119;BMP180;4594;50.994;7.126;2023-02-15T07:35:57;101788.00;;;9.60
9119;BMP180;4594;50.994;7.126;2023-02-15T07:38:25;101785.00;;;10.00
9119;BMP180;4594;50.994;7.126;2023-02-15T07:40:57;101779.00;;;10.40
9119;BMP180;4594;50.994;7.126;2023-02-15T07:43:23;101769.00;;;10.80
9119;BMP180;4594;50.994;7.126;2023-02-15T07:45:49;101755.00;;;11.20
9119;BMP180;4594;50.994;7.126;2023-02-15T07:48:14;101753.00;;;11.60
9119;BMP180;4594;50.994;7.126;2023-02-15T07:50:40;101741.00;;;12.10
9119;BMP180;4594;50.994;7.126;2023-02-15T07:53:06;101746.00;;;12.50
9119;BMP180;4594;50.994;7.126;2023-02-15T07:55:31;101745.00;;;12.80
9119;BMP180;4594;50.994;7.126;2023-02-15T07:57:57;101737.00;;;13.20
9119;BMP180;4594;50.994;7.126;2023-02-15T08:00:23;101733.00;;;13.60
9119;BMP180;4594;50.994;7.126;2023-02-15T08:02:55;101743.00;;;14.00
9119;BMP180;4594;50.994;7.126;2023-02-15T08:05:41;101747.00;;;14.40
9119;BMP180;4594;50.994;7.126;2023-02-15T08:08:09;101745.00;;;14.80
9119;BMP180;4594;50.994;7.126;2023-02-15T08:11:05;101737.00;;;15.30
9119;BMP180;4594;50.994;7.126;2023-02-15T08:21:34;101752.00;;;16.50
9119;BMP180;4594;50.994;7.126;2023-02-15T08:24:00;101749.00;;;16.80
9119;BMP180;4594;50.994;7.126;2023-02-15T08:26:28;101754.00;;;17.20
9119;BMP180;4594;50.994;7.126;2023-02-15T08:28:54;101741.00;;;17.50
9119;BMP180;4594;50.994;7.126;2023-02-15T08:31:21;101736.00;;;17.90
9119;BMP180;4594;50.994;7.126;2023-02-15T08:33:50;101739.00;;;18.20
9119;BMP180;4594;50.994;7.126;2023-02-15T08:36:20;101743.00;;;18.50
9119;BMP180;4594;50.994;7.126;2023-02-15T08:38:47;101734.00;;;18.70
9119;BMP180;4594;50.994;7.126;2023-02-15T08:43:46;101743.00;;;19.20
9119;BMP180;4594;50.994;7.126;2023-02-15T08:46:15;101728.00;;;19.40
9119;BMP180;4594;50.994;7.126;2023-02-15T08:48:41;101726.00;;;19.70
9119;BMP180;4594;50.994;7.126;2023-02-15T08:51:15;101745.00;;;20.10
9119;BMP180;4594;50.994;7.126;2023-02-15T08:53:44;101722.00;;;20.50
9119;BMP180;4594;50.994;7.126;2023-02-15T08:56:11;101726.00;;;20.70
9119;BMP180;4594;50.994;7.126;2023-02-15T08:58:37;101719.00;;;21.00
9119;BMP180;4594;50.994;7.126;2023-02-15T09:01:12;101724.00;;;21.30
9119;BMP180;4594;50.994;7.126;2023-02-15T09:03:39;101732.00;;;21.60
9119;BMP180;4594;50.994;7.126;2023-02-15T09:06:06;101720.00;;;21.80
9119;BMP180;4594;50.994;7.126;2023-02-15T09:08:32;101725.00;;;22.10
9119;BMP180;4594;50.994;7.126;2023-02-15T09:11:21;101728.00;;;22.40
9119;BMP180;4594;50.994;7.126;2023-02-15T09:14:01;101737.00;;;22.80
9119;BMP180;4594;50.994;7.126;2023-02-15T09:16:31;101733.00;;;23.20
9119;BMP180;4594;50.994;7.126;2023-02-15T09:18:58;101728.00;;;23.60
9119;BMP180;4594;50.994;7.126;2023-02-15T09:21:25;101733.00;;;24.10
9119;BMP180;4594;50.994;7.126;2023-02-15T09:24:00;101731.00;;;24.40
9119;BMP180;4594;50.994;7.126;2023-02-15T09:26:29;101736.00;;;24.80
9119;BMP180;4594;50.994;7.126;2023-02-15T09:28:59;101723.00;;;25.10
9119;BMP180;4594;50.994;7.126;2023-02-15T09:31:29;101732.00;;;25.40
9119;BMP180;4594;50.994;7.126;2023-02-15T09:33:56;101720.00;;;25.70
9119;BMP180;4594;50.994;7.126;2023-02-15T09:36:25;101730.00;;;26.00
9119;BMP180;4594;50.994;7.126;2023-02-15T09:39:05;101739.00;;;26.20
9119;BMP180;4594;50.994;7.126;2023-02-15T09:53:29;101760.00;;;27.30
9119;BMP180;4594;50.994;7.126;2023-02-15T10:07:22;101755.00;;;28.30
9119;BMP180;4594;50.994;7.126;2023-02-15T10:13:34;101743.00;;;28.90
9119;BMP180;4594;50.994;7.126;2023-02-15T10:22:19;101754.00;;;29.20
9119;BMP180;4594;50.994;7.126;2023-02-15T10:28:15;101746.00;;;29.00
9119;BMP180;4594;50.994;7.126;2023-02-15T10:30:51;101742.00;;;28.90
9119;BMP180;4594;50.994;7.126;2023-02-15T10:33:42;101741.00;;;28.80
9119;BMP180;4594;50.994;7.126;2023-02-15T10:39:48;101756.00;;;28.30
9119;BMP180;4594;50.994;7.126;2023-02-15T10:46:21;101748.00;;;27.40
9119;BMP180;4594;50.994;7.126;2023-02-15T10:52:31;101748.00;;;26.70
9119;BMP180;4594;50.994;7.126;2023-02-15T10:58:15;101750.00;;;25.10
9119;BMP180;4594;50.994;7.126;2023-02-15T11:00:58;101753.00;;;24.30
9119;BMP180;4594;50.994;7.126;2023-02-15T11:06:25;101735.00;;;22.80
9119;BMP180;4594;50.994;7.126;2023-02-15T11:09:08;101727.00;;;22.10
9119;BMP180;4594;50.994;7.126;2023-02-15T11:11:39;101728.00;;;21.50
9119;BMP180;4594;50.994;7.126;2023-02-15T11:17:09;101720.00;;;20.30
9119;BMP180;4594;50.994;7.126;2023-02-15T11:22:12;101723.00;;;19.70
9119;BMP180;4594;50.994;7.126;2023-02-15T11:24:43;101716.00;;;19.40
9119;BMP180;4594;50.994;7.126;2023-02-15T11:27:24;101701.00;;;19.10
9119;BMP180;4594;50.994;7.126;2023-02-15T11:30:17;101707.00;;;18.80
9119;BMP180;4594;50.994;7.126;2023-02-15T11:32:46;101697.00;;;18.60
9119;BMP180;4594;50.994;7.126;2023-02-15T11:40:30;101682.00;;;18.20
9119;BMP180;4594;50.994;7.126;2023-02-15T11:43:05;101679.00;;;18.10
9119;BMP180;4594;50.994;7.126;2023-02-15T11:45:33;101682.00;;;18.00
9119;BMP180;4594;50.994;7.126;2023-02-15T11:48:11;101675.00;;;18.00
9119;BMP180;4594;50.994;7.126;2023-02-15T11:50:39;101670.00;;;17.90
9119;BMP180;4594;50.994;7.126;2023-02-15T11:53:19;101678.00;;;17.90
9119;BMP180;4594;50.994;7.126;2023-02-15T11:55:54;101665.00;;;17.80
9119;BMP180;4594;50.994;7.126;2023-02-15T12:01:33;101669.00;;;17.70
9119;BMP180;4594;50.994;7.126;2023-02-15T12:04:26;101673.00;;;17.60
9119;BMP180;4594;50.994;7.126;2023-02-15T12:07:25;101662.00;;;17.60
9119;BMP180;4594;50.994;7.126;2023-02-15T12:10:26;101660.00;;;17.50
9119;BMP180;4594;50.994;7.126;2023-02-15T12:13:14;101653.00;;;17.50
9119;BMP180;4594;50.994;7.126;2023-02-15T12:15:47;101656.00;;;17.40
9119;BMP180;4594;50.994;7.126;2023-02-15T12:20:51;101636.00;;;17.30
9119;BMP180;4594;50.994;7.126;2023-02-15T12:23:18;101640.00;;;17.30
9119;BMP180;4594;50.994;7.126;2023-02-15T12:25:55;101636.00;;;17.20
9119;BMP180;4594;50.994;7.126;2023-02-15T12:30:57;101641.00;;;17.10
9119;BMP180;4594;50.994;7.126;2023-02-15T12:33:39;101633.00;;;17.10
9119;BMP180;4594;50.994;7.126;2023-02-15T12:36:18;101627.00;;;17.10
9119;BMP180;4594;50.994;7.126;2023-02-15T12:39:09;101632.00;;;17.00
9119;BMP180;4594;50.994;7.126;2023-02-15T12:42:14;101624.00;;;17.00
9119;BMP180;4594;50.994;7.126;2023-02-15T12:45:01;101622.00;;;17.00
9119;BMP180;4594;50.994;7.126;2023-02-15T12:47:29;101619.00;;;16.90
9119;BMP180;4594;50.994;7.126;2023-02-15T12:50:22;101612.00;;;16.90
9119;BMP180;4594;50.994;7.126;2023-02-15T12:52:50;101590.00;;;16.90
9119;BMP180;4594;50.994;7.126;2023-02-15T12:55:23;101598.00;;;17.00
9119;BMP180;4594;50.994;7.126;2023-02-15T12:58:05;101588.00;;;17.00
9119;BMP180;4594;50.994;7.126;2023-02-15T13:00:30;101583.00;;;17.00
9119;BMP180;4594;50.994;7.126;2023-02-15T13:02:59;101580.00;;;17.00
9119;BMP180;4594;50.994;7.126;2023-02-15T13:05:33;101585.00;;;17.10
9119;BMP180;4594;50.994;7.126;2023-02-15T13:08:10;101587.00;;;17.10
9119;BMP180;4594;50.994;7.126;2023-02-15T13:11:03;101584.00;;;17.10
9119;BMP180;4594;50.994;7.126;2023-02-15T13:13:34;101581.00;;;17.20
9119;BMP180;4594;50.994;7.126;2023-02-15T13:16:13;101582.00;;;17.20
9119;BMP180;4594;50.994;7.126;2023-02-15T13:18:46;101584.00;;;17.20
9119;BMP180;4594;50.994;7.126;2023-02-15T13:21:21;101572.00;;;17.20
9119;BMP180;4594;50.994;7.126;2023-02-15T13:23:55;101570.00;;;17.30
9119;BMP180;4594;50.994;7.126;2023-02-15T13:26:26;101578.00;;;17.20
9119;BMP180;4594;50.994;7.126;2023-02-15T13:29:07;101576.00;;;17.20
9119;BMP180;4594;50.994;7.126;2023-02-15T13:31:34;101520.00;;;17.30
9119;BMP180;4594;50.994;7.126;2023-02-15T13:34:12;101548.00;;;17.30
9119;BMP180;4594;50.994;7.126;2023-02-15T13:44:56;101539.00;;;17.30
9119;BMP180;4594;50.994;7.126;2023-02-15T13:48:05;101538.00;;;17.30
9119;BMP180;4594;50.994;7.126;2023-02-15T14:06:25;101517.00;;;17.30
9119;BMP180;4594;50.994;7.126;2023-02-15T14:09:30;101510.00;;;17.30
9119;BMP180;4594;50.994;7.126;2023-02-15T14:15:21;101513.00;;;17.40
9119;BMP180;4594;50.994;7.126;2023-02-15T14:18:12;101511.00;;;17.40
9119;BMP180;4594;50.994;7.126;2023-02-15T14:24:12;101515.00;;;17.40
9119;BMP180;4594;50.994;7.126;2023-02-15T14:27:06;101512.00;;;17.40
9119;BMP180;4594;50.994;7.126;2023-02-15T14:29:57;101500.00;;;17.40
9119;BMP180;4594;50.994;7.126;2023-02-15T14:32:45;101494.00;;;17.40
9119;BMP180;4594;50.994;7.126;2023-02-15T14:35:20;101510.00;;;17.50
9119;BMP180;4594;50.994;7.126;2023-02-15T14:38:04;101510.00;;;17.50
9119;BMP180;4594;50.994;7.126;2023-02-15T14:40:54;101511.00;;;17.50
9119;BMP180;4594;50.994;7.126;2023-02-15T14:46:38;101513.00;;;17.40
9119;BMP180;4594;50.994;7.126;2023-02-15T14:49:16;101510.00;;;17.40
9119;BMP180;4594;50.994;7.126;2023-02-15T14:59:56;101494.00;;;17.40
9119;BMP180;4594;50.994;7.126;2023-02-15T15:05:16;101507.00;;;17.30
9119;BMP180;4594;50.994;7.126;2023-02-15T15:07:56;101506.00;;;17.30
9119;BMP180;4594;50.994;7.126;2023-02-15T15:18:45;101501.00;;;17.10
9119;BMP180;4594;50.994;7.126;2023-02-15T15:21:11;101504.00;;;17.10
9119;BMP180;4594;50.994;7.126;2023-02-15T15:23:56;101506.00;;;17.00
9119;BMP180;4594;50.994;7.126;2023-02-15T15:26:28;101503.00;;;17.00
9119;BMP180;4594;50.994;7.126;2023-02-15T15:28:58;101501.00;;;17.00
9119;BMP180;4594;50.994;7.126;2023-02-15T15:31:51;101501.00;;;16.90
9119;BMP180;4594;50.994;7.126;2023-02-15T15:35:07;101503.00;;;16.80
9119;BMP180;4594;50.994;7.126;2023-02-15T15:38:19;101496.00;;;16.80
9119;BMP180;4594;50.994;7.126;2023-02-15T15:41:18;101500.00;;;16.80
9119;BMP180;4594;50.994;7.126;2023-02-15T15:44:57;101498.00;;;16.70
9119;BMP180;4594;50.994;7.126;2023-02-15T15:47:24;101503.00;;;16.70
9119;BMP180;4594;50.994;7.126;2023-02-15T15:49:59;101505.00;;;16.60
9119;BMP180;4594;50.994;7.126;2023-02-15T15:52:26;101503.00;;;16.60
9119;BMP180;4594;50.994;7.126;2023-02-15T15:54:58;101499.00;;;16.50
9119;BMP180;4594;50.994;7.126;2023-02-15T15:57:33;101491.00;;;16.50
9119;BMP180;4594;50.994;7.126;2023-02-15T16:00:00;101495.00;;;16.50
9119;BMP180;4594;50.994;7.126;2023-02-15T16:02:27;101495.00;;;16.40
9119;BMP180;4594;50.994;7.126;2023-02-15T16:04:53;101511.00;;;16.40
9119;BMP180;4594;50.994;7.126;2023-02-15T16:10:04;101507.00;;;16.30
9119;BMP180;4594;50.994;7.126;2023-02-15T16:12:38;101510.00;;;16.20
9119;BMP180;4594;50.994;7.126;2023-02-15T16:15:16;101501.00;;;16.20
9119;BMP180;4594;50.994;7.126;2023-02-15T16:17:50;101497.00;;;16.10
9119;BMP180;4594;50.994;7.126;2023-02-15T16:26:11;101496.00;;;15.90
9119;BMP180;4594;50.994;7.126;2023-02-15T16:28:51;101492.00;;;15.80
9119;BMP180;4594;50.994;7.126;2023-02-15T16:31:19;101484.00;;;15.80
9119;BMP180;4594;50.994;7.126;2023-02-15T16:33:45;101502.00;;;15.70
9119;BMP180;4594;50.994;7.126;2023-02-15T16:36:24;101502.00;;;15.70
9119;BMP180;4594;50.994;7.126;2023-02-15T16:41:23;101497.00;;;15.60
9119;BMP180;4594;50.994;7.126;2023-02-15T16:43:51;101472.00;;;15.50
9119;BMP180;4594;50.994;7.126;2023-02-15T16:46:30;101503.00;;;15.40
9119;BMP180;4594;50.994;7.126;2023-02-15T16:49:24;101489.00;;;15.30
9119;BMP180;4594;50.994;7.126;2023-02-15T16:51:57;101483.00;;;15.30
9119;BMP180;4594;50.994;7.126;2023-02-15T16:54:25;101502.00;;;15.20
9119;BMP180;4594;50.994;7.126;2023-02-15T16:56:52;101514.00;;;15.20
9119;BMP180;4594;50.994;7.126;2023-02-15T16:59:41;101511.00;;;15.10
9119;BMP180;4594;50.994;7.126;2023-02-15T17:02:20;101488.00;;;15.10
9119;BMP180;4594;50.994;7.126;2023-02-15T17:05:15;101513.00;;;15.00
9119;BMP180;4594;50.994;7.126;2023-02-15T17:07:51;101483.00;;;14.90
9119;BMP180;4594;50.994;7.126;2023-02-15T17:10:37;101504.00;;;14.80
9119;BMP180;4594;50.994;7.126;2023-02-15T17:13:16;101488.00;;;14.80
9119;BMP180;4594;50.994;7.126;2023-02-15T17:18:38;101492.00;;;14.60
9119;BMP180;4594;50.994;7.126;2023-02-15T17:21:16;101509.00;;;14.60
9119;BMP180;4594;50.994;7.126;2023-02-15T17:23:46;101505.00;;;14.50
9119;BMP180;4594;50.994;7.126;2023-02-15T17:26:18;101509.00;;;14.50
9119;BMP180;4594;50.994;7.126;2023-02-15T17:28:55;101488.00;;;14.40
9119;BMP180;4594;50.994;7.126;2023-02-15T17:33:53;101494.00;;;14.30
9119;BMP180;4594;50.994;7.126;2023-02-15T17:36:26;101499.00;;;14.30
9119;BMP180;4594;50.994;7.126;2023-02-15T17:41:29;101506.00;;;14.20
9119;BMP180;4594;50.994;7.126;2023-02-15T17:43:55;101512.00;;;14.20
9119;BMP180;4594;50.994;7.126;2023-02-15T17:46:21;101496.00;;;14.10
9119;BMP180;4594;50.994;7.126;2023-02-15T17:48:49;101506.00;;;14.10
9119;BMP180;4594;50.994;7.126;2023-02-15T17:51:17;101512.00;;;14.10
9119;BMP180;4594;50.994;7.126;2023-02-15T17:53:44;101518.00;;;14.00
9119;BMP180;4594;50.994;7.126;2023-02-15T17:56:31;101523.00;;;14.00
9119;BMP180;4594;50.994;7.126;2023-02-15T17:58:56;101519.00;;;13.90
9119;BMP180;4594;50.994;7.126;2023-02-15T18:01:22;101512.00;;;13.90